sensor_id;sensor_type;location;lat;lon;timestamp;P1;durP1;ratioP1;P2;durP2;ratioP2
53525;SDS011;40551;50.478;19.378;2023-08-17T00:02:26;14.00;;;9.90;;
53525;SDS011;40551;50.478;19.378;2023-08-17T00:04:57;12.20;;;8.90;;
53525;SDS011;40551;50.478;19.378;2023-08-17T00:07:29;11.00;;;9.00;;
53525;SDS011;40551;50.478;19.378;2023-08-17T00:10:01;12.40;;;9.50;;
53525;SDS011;40551;50.478;19.378;2023-08-17T00:12:34;14.60;;;10.00;;
53525;SDS011;40551;50.478;19.378;2023-08-17T00:15:06;12.20;;;10.20;;
53525;SDS011;40551;50.478;19.378;2023-08-17T00:17:38;13.70;;;9.90;;
53525;SDS011;40551;50.478;19.378;2023-08-17T00:20:10;13.90;;;10.00;;
53525;SDS011;40551;50.478;19.378;2023-08-17T00:22:43;12.10;;;9.70;;
53525;SDS011;40551;50.478;19.378;2023-08-17T00:25:14;12.50;;;9.60;;
53525;SDS011;40551;50.478;19.378;2023-08-17T00:27:46;14.00;;;11.10;;
53525;SDS011;40551;50.478;19.378;2023-08-17T00:30:18;17.30;;;10.10;;
53525;SDS011;40551;50.478;19.378;2023-08-17T00:32:51;12.60;;;10.10;;
53525;SDS011;40551;50.478;19.378;2023-08-17T00:35:22;12.80;;;9.20;;
53525;SDS011;40551;50.478;19.378;2023-08-17T00:37:54;14.20;;;10.40;;
53525;SDS011;40551;50.478;19.378;2023-08-17T00:40:25;12.90;;;9.30;;
53525;SDS011;40551;50.478;19.378;2023-08-17T00:42:57;10.40;;;8.80;;
53525;SDS011;40551;50.478;19.378;2023-08-17T00:45:29;13.60;;;10.10;;
53525;SDS011;40551;50.478;19.378;2023-08-17T00:48:01;15.40;;;9.80;;
53525;SDS011;40551;50.478;19.378;2023-08-17T00:50:34;14.10;;;9.40;;
53525;SDS011;40551;50.478;19.378;2023-08-17T00:53:06;13.30;;;10.30;;
53525;SDS011;40551;50.478;19.378;2023-08-17T00:55:42;12.60;;;9.10;;
53525;SDS011;40551;50.478;19.378;2023-08-17T00:58:15;14.20;;;9.60;;
53525;SDS011;40551;50.478;19.378;2023-08-17T01:00:46;10.80;;;8.40;;
53525;SDS011;40551;50.478;19.378;2023-08-17T01:03:18;11.90;;;9.20;;
53525;SDS011;40551;50.478;19.378;2023-08-17T01:05:50;13.40;;;8.90;;
53525;SDS011;40551;50.478;19.378;2023-08-17T01:08:22;13.00;;;9.50;;
53525;SDS011;40551;50.478;19.378;2023-08-17T01:10:55;16.00;;;10.30;;
53525;SDS011;40551;50.478;19.378;2023-08-17T01:13:34;11.50;;;9.80;;
53525;SDS011;40551;50.478;19.378;2023-08-17T01:16:13;13.90;;;10.50;;
53525;SDS011;40551;50.478;19.378;2023-08-17T01:18:53;12.00;;;10.00;;
53525;SDS011;40551;50.478;19.378;2023-08-17T01:21:29;16.90;;;9.90;;
53525;SDS011;40551;50.478;19.378;2023-08-17T01:24:11;14.00;;;10.60;;
53525;SDS011;40551;50.478;19.378;2023-08-17T01:26:44;17.10;;;9.70;;
53525;SDS011;40551;50.478;19.378;2023-08-17T01:29:16;13.40;;;9.70;;
53525;SDS011;40551;50.478;19.378;2023-08-17T01:31:50;12.50;;;9.40;;
53525;SDS011;40551;50.478;19.378;2023-08-17T01:34:32;13.20;;;9.50;;
53525;SDS011;40551;50.478;19.378;2023-08-17T01:37:08;13.70;;;9.40;;
53525;SDS011;40551;50.478;19.378;2023-08-17T01:39:44;16.40;;;10.30;;
53525;SDS011;40551;50.478;19.378;2023-08-17T01:42:19;14.10;;;11.50;;
53525;SDS011;40551;50.478;19.378;2023-08-17T01:44:52;14.30;;;11.10;;
53525;SDS011;40551;50.478;19.378;2023-08-17T01:47:24;15.10;;;10.50;;
53525;SDS011;40551;50.478;19.378;2023-08-17T01:49:56;16.40;;;10.80;;
53525;SDS011;40551;50.478;19.378;2023-08-17T01:52:29;12.00;;;10.10;;
53525;SDS011;40551;50.478;19.378;2023-08-17T01:55:03;13.10;;;10.20;;
53525;SDS011;40551;50.478;19.378;2023-08-17T01:57:35;12.40;;;9.30;;
53525;SDS011;40551;50.478;19.378;2023-08-17T02:00:08;12.40;;;9.20;;
53525;SDS011;40551;50.478;19.378;2023-08-17T02:02:44;16.00;;;9.90;;
53525;SDS011;40551;50.478;19.378;2023-08-17T02:05:16;14.00;;;10.30;;
53525;SDS011;40551;50.478;19.378;2023-08-17T02:07:48;17.90;;;11.20;;
53525;SDS011;40551;50.478;19.378;2023-08-17T02:10:24;18.50;;;10.90;;
53525;SDS011;40551;50.478;19.378;2023-08-17T02:12:56;16.10;;;11.50;;
53525;SDS011;40551;50.478;19.378;2023-08-17T02:15:45;12.50;;;10.40;;
53525;SDS011;40551;50.478;19.378;2023-08-17T02:18:18;20.50;;;11.00;;
53525;SDS011;40551;50.478;19.378;2023-08-17T02:20:49;16.70;;;12.30;;
53525;SDS011;40551;50.478;19.378;2023-08-17T02:23:21;15.10;;;12.00;;
53525;SDS011;40551;50.478;19.378;2023-08-17T02:25:53;18.00;;;12.70;;
53525;SDS011;40551;50.478;19.378;2023-08-17T02:28:25;14.60;;;12.00;;
53525;SDS011;40551;50.478;19.378;2023-08-17T02:30:58;18.70;;;11.40;;
53525;SDS011;40551;50.478;19.378;2023-08-17T02:33:30;13.20;;;11.80;;
53525;SDS011;40551;50.478;19.378;2023-08-17T02:36:02;15.00;;;11.90;;
53525;SDS011;40551;50.478;19.378;2023-08-17T02:38:35;16.70;;;12.00;;
53525;SDS011;40551;50.478;19.378;2023-08-17T02:41:07;16.20;;;11.90;;
53525;SDS011;40551;50.478;19.378;2023-08-17T02:43:38;15.60;;;12.40;;
53525;SDS011;40551;50.478;19.378;2023-08-17T02:46:14;16.20;;;12.60;;
53525;SDS011;40551;50.478;19.378;2023-08-17T02:48:46;14.20;;;11.80;;
53525;SDS011;40551;50.478;19.378;2023-08-17T02:51:19;15.20;;;11.80;;
53525;SDS011;40551;50.478;19.378;2023-08-17T02:53:51;12.40;;;10.50;;
53525;SDS011;40551;50.478;19.378;2023-08-17T02:56:23;18.10;;;12.40;;
53525;SDS011;40551;50.478;19.378;2023-08-17T02:58:55;14.70;;;11.50;;
53525;SDS011;40551;50.478;19.378;2023-08-17T03:01:26;15.70;;;11.70;;
53525;SDS011;40551;50.478;19.378;2023-08-17T03:04:00;14.00;;;11.80;;
53525;SDS011;40551;50.478;19.378;2023-08-17T03:06:31;16.50;;;11.70;;
53525;SDS011;40551;50.478;19.378;2023-08-17T03:09:04;15.80;;;12.20;;
53525;SDS011;40551;50.478;19.378;2023-08-17T03:11:36;18.60;;;12.10;;
53525;SDS011;40551;50.478;19.378;2023-08-17T03:14:08;14.30;;;12.10;;
53525;SDS011;40551;50.478;19.378;2023-08-17T03:16:39;14.80;;;11.50;;
53525;SDS011;40551;50.478;19.378;2023-08-17T03:19:11;16.20;;;12.30;;
53525;SDS011;40551;50.478;19.378;2023-08-17T03:21:44;13.90;;;11.60;;
53525;SDS011;40551;50.478;19.378;2023-08-17T03:24:16;15.90;;;12.40;;
53525;SDS011;40551;50.478;19.378;2023-08-17T03:26:48;13.70;;;11.90;;
53525;SDS011;40551;50.478;19.378;2023-08-17T03:29:20;13.30;;;11.50;;
53525;SDS011;40551;50.478;19.378;2023-08-17T03:31:52;16.60;;;12.00;;
53525;SDS011;40551;50.478;19.378;2023-08-17T03:34:25;14.40;;;12.30;;
53525;SDS011;40551;50.478;19.378;2023-08-17T03:36:57;13.80;;;11.60;;
53525;SDS011;40551;50.478;19.378;2023-08-17T03:39:29;13.80;;;11.20;;
53525;SDS011;40551;50.478;19.378;2023-08-17T03:42:01;16.60;;;12.70;;
53525;SDS011;40551;50.478;19.378;2023-08-17T03:44:33;19.30;;;15.40;;
53525;SDS011;40551;50.478;19.378;2023-08-17T03:47:05;21.80;;;19.70;;
53525;SDS011;40551;50.478;19.378;2023-08-17T03:49:36;19.10;;;15.40;;
53525;SDS011;40551;50.478;19.378;2023-08-17T03:52:08;17.00;;;14.10;;
53525;SDS011;40551;50.478;19.378;2023-08-17T03:54:39;13.60;;;12.10;;
53525;SDS011;40551;50.478;19.378;2023-08-17T03:57:11;15.40;;;12.10;;
53525;SDS011;40551;50.478;19.378;2023-08-17T03:59:43;19.40;;;12.70;;
53525;SDS011;40551;50.478;19.378;2023-08-17T04:02:14;16.50;;;12.30;;
53525;SDS011;40551;50.478;19.378;2023-08-17T04:04:46;14.90;;;12.60;;
53525;SDS011;40551;50.478;19.378;2023-08-17T04:07:21;14.10;;;11.60;;
53525;SDS011;40551;50.478;19.378;2023-08-17T04:09:55;16.00;;;11.70;;
53525;SDS011;40551;50.478;19.378;2023-08-17T04:12:28;15.30;;;12.60;;
53525;SDS011;40551;50.478;19.378;2023-08-17T04:14:59;15.20;;;12.40;;
53525;SDS011;40551;50.478;19.378;2023-08-17T04:17:32;15.40;;;11.30;;
53525;SDS011;40551;50.478;19.378;2023-08-17T04:20:05;15.20;;;12.60;;
53525;SDS011;40551;50.478;19.378;2023-08-17T04:22:38;15.20;;;12.80;;
53525;SDS011;40551;50.478;19.378;2023-08-17T04:25:09;14.30;;;12.80;;
53525;SDS011;40551;50.478;19.378;2023-08-17T04:27:42;16.40;;;12.60;;
53525;SDS011;40551;50.478;19.378;2023-08-17T04:30:14;18.20;;;13.90;;
53525;SDS011;40551;50.478;19.378;2023-08-17T04:32:51;14.30;;;11.70;;
53525;SDS011;40551;50.478;19.378;2023-08-17T04:35:23;16.00;;;12.20;;
53525;SDS011;40551;50.478;19.378;2023-08-17T04:37:55;15.20;;;11.90;;
53525;SDS011;40551;50.478;19.378;2023-08-17T04:40:27;14.60;;;11.20;;
53525;SDS011;40551;50.478;19.378;2023-08-17T04:42:59;13.20;;;11.70;;
53525;SDS011;40551;50.478;19.378;2023-08-17T04:45:31;13.00;;;11.60;;
53525;SDS011;40551;50.478;19.378;2023-08-17T04:48:04;13.10;;;11.70;;
53525;SDS011;40551;50.478;19.378;2023-08-17T04:50:36;14.90;;;13.20;;
53525;SDS011;40551;50.478;19.378;2023-08-17T04:53:08;20.50;;;13.80;;
53525;SDS011;40551;50.478;19.378;2023-08-17T04:55:40;15.10;;;12.90;;
53525;SDS011;40551;50.478;19.378;2023-08-17T04:58:12;15.40;;;11.80;;
53525;SDS011;40551;50.478;19.378;2023-08-17T05:00:44;14.40;;;12.10;;
53525;SDS011;40551;50.478;19.378;2023-08-17T05:03:17;15.10;;;12.30;;
53525;SDS011;40551;50.478;19.378;2023-08-17T05:06:01;16.30;;;14.20;;
53525;SDS011;40551;50.478;19.378;2023-08-17T05:08:34;14.60;;;12.90;;
53525;SDS011;40551;50.478;19.378;2023-08-17T05:11:05;13.50;;;12.10;;
53525;SDS011;40551;50.478;19.378;2023-08-17T05:13:37;14.50;;;12.10;;
53525;SDS011;40551;50.478;19.378;2023-08-17T05:16:09;16.10;;;11.70;;
53525;SDS011;40551;50.478;19.378;2023-08-17T05:18:41;15.90;;;12.10;;
53525;SDS011;40551;50.478;19.378;2023-08-17T05:21:15;18.50;;;12.20;;
53525;SDS011;40551;50.478;19.378;2023-08-17T05:23:46;17.50;;;11.70;;
53525;SDS011;40551;50.478;19.378;2023-08-17T05:26:18;15.70;;;12.70;;
53525;SDS011;40551;50.478;19.378;2023-08-17T05:28:50;16.80;;;12.70;;
53525;SDS011;40551;50.478;19.378;2023-08-17T05:31:21;16.10;;;12.50;;
53525;SDS011;40551;50.478;19.378;2023-08-17T05:33:54;17.00;;;13.10;;
53525;SDS011;40551;50.478;19.378;2023-08-17T05:36:26;16.40;;;12.80;;
53525;SDS011;40551;50.478;19.378;2023-08-17T05:38:58;16.80;;;12.40;;
53525;SDS011;40551;50.478;19.378;2023-08-17T05:41:30;20.90;;;12.30;;
53525;SDS011;40551;50.478;19.378;2023-08-17T05:44:02;16.50;;;11.30;;
53525;SDS011;40551;50.478;19.378;2023-08-17T05:46:35;17.60;;;12.00;;
53525;SDS011;40551;50.478;19.378;2023-08-17T05:49:09;19.00;;;11.90;;
53525;SDS011;40551;50.478;19.378;2023-08-17T05:51:40;25.30;;;12.70;;
53525;SDS011;40551;50.478;19.378;2023-08-17T05:54:12;38.50;;;14.30;;
53525;SDS011;40551;50.478;19.378;2023-08-17T05:56:44;34.90;;;13.80;;
53525;SDS011;40551;50.478;19.378;2023-08-17T05:59:16;27.70;;;14.20;;
53525;SDS011;40551;50.478;19.378;2023-08-17T06:01:48;20.40;;;12.00;;
53525;SDS011;40551;50.478;19.378;2023-08-17T06:04:20;26.10;;;12.30;;
53525;SDS011;40551;50.478;19.378;2023-08-17T06:06:51;22.40;;;13.20;;
53525;SDS011;40551;50.478;19.378;2023-08-17T06:09:23;23.00;;;13.60;;
53525;SDS011;40551;50.478;19.378;2023-08-17T06:11:55;25.50;;;13.00;;
53525;SDS011;40551;50.478;19.378;2023-08-17T06:14:27;21.30;;;12.90;;
53525;SDS011;40551;50.478;19.378;2023-08-17T06:16:58;30.60;;;14.20;;
53525;SDS011;40551;50.478;19.378;2023-08-17T06:19:30;21.00;;;13.10;;
53525;SDS011;40551;50.478;19.378;2023-08-17T06:22:02;18.60;;;11.70;;
53525;SDS011;40551;50.478;19.378;2023-08-17T06:24:34;15.70;;;12.40;;
53525;SDS011;40551;50.478;19.378;2023-08-17T06:27:05;16.00;;;12.30;;
53525;SDS011;40551;50.478;19.378;2023-08-17T06:29:37;17.80;;;12.40;;
53525;SDS011;40551;50.478;19.378;2023-08-17T06:32:09;20.10;;;12.20;;
53525;SDS011;40551;50.478;19.378;2023-08-17T06:34:40;17.20;;;12.30;;
53525;SDS011;40551;50.478;19.378;2023-08-17T06:37:12;17.60;;;12.10;;
53525;SDS011;40551;50.478;19.378;2023-08-17T06:39:43;15.30;;;12.50;;
53525;SDS011;40551;50.478;19.378;2023-08-17T06:42:15;15.80;;;12.10;;
53525;SDS011;40551;50.478;19.378;2023-08-17T06:44:47;16.40;;;12.40;;
53525;SDS011;40551;50.478;19.378;2023-08-17T06:47:18;18.70;;;13.20;;
53525;SDS011;40551;50.478;19.378;2023-08-17T06:49:50;20.40;;;14.80;;
53525;SDS011;40551;50.478;19.378;2023-08-17T06:52:22;19.10;;;13.50;;
53525;SDS011;40551;50.478;19.378;2023-08-17T06:54:54;15.40;;;12.50;;
53525;SDS011;40551;50.478;19.378;2023-08-17T06:57:25;16.00;;;12.60;;
53525;SDS011;40551;50.478;19.378;2023-08-17T06:59:57;19.10;;;13.40;;
53525;SDS011;40551;50.478;19.378;2023-08-17T07:02:29;31.30;;;13.90;;
53525;SDS011;40551;50.478;19.378;2023-08-17T07:05:19;35.10;;;13.30;;
53525;SDS011;40551;50.478;19.378;2023-08-17T07:07:51;20.60;;;12.90;;
53525;SDS011;40551;50.478;19.378;2023-08-17T07:10:24;27.00;;;13.10;;
53525;SDS011;40551;50.478;19.378;2023-08-17T07:12:57;22.00;;;13.20;;
53525;SDS011;40551;50.478;19.378;2023-08-17T07:15:31;22.70;;;13.00;;
53525;SDS011;40551;50.478;19.378;2023-08-17T07:18:04;20.20;;;12.70;;
53525;SDS011;40551;50.478;19.378;2023-08-17T07:20:36;14.30;;;12.60;;
53525;SDS011;40551;50.478;19.378;2023-08-17T07:23:07;17.00;;;13.00;;
53525;SDS011;40551;50.478;19.378;2023-08-17T07:25:39;14.70;;;12.80;;
53525;SDS011;40551;50.478;19.378;2023-08-17T07:28:11;19.60;;;13.20;;
53525;SDS011;40551;50.478;19.378;2023-08-17T07:30:44;19.70;;;13.20;;
53525;SDS011;40551;50.478;19.378;2023-08-17T07:33:15;22.10;;;12.80;;
53525;SDS011;40551;50.478;19.378;2023-08-17T07:35:47;15.50;;;12.90;;
53525;SDS011;40551;50.478;19.378;2023-08-17T07:38:18;22.40;;;13.60;;
53525;SDS011;40551;50.478;19.378;2023-08-17T07:40:50;21.00;;;11.80;;
53525;SDS011;40551;50.478;19.378;2023-08-17T07:43:22;18.10;;;13.10;;
53525;SDS011;40551;50.478;19.378;2023-08-17T07:45:54;13.80;;;11.90;;
53525;SDS011;40551;50.478;19.378;2023-08-17T07:48:26;15.70;;;13.10;;
53525;SDS011;40551;50.478;19.378;2023-08-17T07:51:02;19.90;;;13.00;;
53525;SDS011;40551;50.478;19.378;2023-08-17T07:53:34;20.40;;;12.60;;
53525;SDS011;40551;50.478;19.378;2023-08-17T07:56:05;16.90;;;12.30;;
53525;SDS011;40551;50.478;19.378;2023-08-17T07:58:37;18.30;;;12.80;;
53525;SDS011;40551;50.478;19.378;2023-08-17T08:01:09;17.70;;;13.20;;
53525;SDS011;40551;50.478;19.378;2023-08-17T08:03:41;13.30;;;11.60;;
53525;SDS011;40551;50.478;19.378;2023-08-17T08:06:13;18.70;;;12.30;;
53525;SDS011;40551;50.478;19.378;2023-08-17T08:08:44;17.40;;;12.30;;
53525;SDS011;40551;50.478;19.378;2023-08-17T08:11:16;20.80;;;12.40;;
53525;SDS011;40551;50.478;19.378;2023-08-17T08:13:48;16.40;;;12.30;;
53525;SDS011;40551;50.478;19.378;2023-08-17T08:16:20;17.80;;;11.70;;
53525;SDS011;40551;50.478;19.378;2023-08-17T08:18:51;21.90;;;12.00;;
53525;SDS011;40551;50.478;19.378;2023-08-17T08:21:24;16.30;;;12.20;;
53525;SDS011;40551;50.478;19.378;2023-08-17T08:23:57;16.90;;;11.50;;
53525;SDS011;40551;50.478;19.378;2023-08-17T08:26:28;18.90;;;12.60;;
53525;SDS011;40551;50.478;19.378;2023-08-17T08:29:00;18.10;;;12.50;;
53525;SDS011;40551;50.478;19.378;2023-08-17T08:31:32;21.90;;;13.10;;
53525;SDS011;40551;50.478;19.378;2023-08-17T08:34:04;17.60;;;12.60;;
53525;SDS011;40551;50.478;19.378;2023-08-17T08:36:35;19.10;;;11.50;;
53525;SDS011;40551;50.478;19.378;2023-08-17T08:39:07;18.20;;;11.40;;
53525;SDS011;40551;50.478;19.378;2023-08-17T08:41:39;16.30;;;11.70;;
53525;SDS011;40551;50.478;19.378;2023-08-17T08:44:11;16.50;;;12.30;;
53525;SDS011;40551;50.478;19.378;2023-08-17T08:46:43;20.00;;;12.20;;
53525;SDS011;40551;50.478;19.378;2023-08-17T08:49:17;18.50;;;11.90;;
53525;SDS011;40551;50.478;19.378;2023-08-17T08:51:52;22.20;;;11.60;;
53525;SDS011;40551;50.478;19.378;2023-08-17T08:54:28;24.80;;;12.80;;
53525;SDS011;40551;50.478;19.378;2023-08-17T08:57:09;15.70;;;11.90;;
53525;SDS011;40551;50.478;19.378;2023-08-17T08:59:43;16.70;;;11.70;;
53525;SDS011;40551;50.478;19.378;2023-08-17T09:02:17;19.70;;;11.50;;
53525;SDS011;40551;50.478;19.378;2023-08-17T09:04:49;16.00;;;10.60;;
53525;SDS011;40551;50.478;19.378;2023-08-17T09:07:21;16.10;;;11.00;;
53525;SDS011;40551;50.478;19.378;2023-08-17T09:09:54;23.20;;;11.60;;
53525;SDS011;40551;50.478;19.378;2023-08-17T09:12:26;15.70;;;11.00;;
53525;SDS011;40551;50.478;19.378;2023-08-17T09:15:09;14.30;;;10.80;;
53525;SDS011;40551;50.478;19.378;2023-08-17T09:17:41;17.40;;;11.80;;
53525;SDS011;40551;50.478;19.378;2023-08-17T09:20:17;17.60;;;11.30;;
53525;SDS011;40551;50.478;19.378;2023-08-17T09:23:11;16.30;;;11.50;;
53525;SDS011;40551;50.478;19.378;2023-08-17T09:25:45;18.90;;;12.20;;
53525;SDS011;40551;50.478;19.378;2023-08-17T09:28:18;14.80;;;10.80;;
53525;SDS011;40551;50.478;19.378;2023-08-17T09:30:51;23.20;;;12.20;;
53525;SDS011;40551;50.478;19.378;2023-08-17T09:33:25;16.30;;;11.40;;
53525;SDS011;40551;50.478;19.378;2023-08-17T09:35:58;24.40;;;12.70;;
53525;SDS011;40551;50.478;19.378;2023-08-17T09:38:30;20.00;;;12.10;;
53525;SDS011;40551;50.478;19.378;2023-08-17T09:41:02;21.10;;;13.10;;
53525;SDS011;40551;50.478;19.378;2023-08-17T09:43:35;17.00;;;12.10;;
53525;SDS011;40551;50.478;19.378;2023-08-17T09:46:07;23.60;;;12.80;;
53525;SDS011;40551;50.478;19.378;2023-08-17T09:48:39;19.90;;;13.10;;
53525;SDS011;40551;50.478;19.378;2023-08-17T09:51:15;18.80;;;12.00;;
53525;SDS011;40551;50.478;19.378;2023-08-17T09:53:52;13.80;;;10.80;;
53525;SDS011;40551;50.478;19.378;2023-08-17T09:56:27;17.60;;;11.70;;
53525;SDS011;40551;50.478;19.378;2023-08-17T09:58:59;28.00;;;11.70;;
53525;SDS011;40551;50.478;19.378;2023-08-17T10:01:30;18.10;;;11.40;;
53525;SDS011;40551;50.478;19.378;2023-08-17T10:04:03;13.10;;;8.80;;
53525;SDS011;40551;50.478;19.378;2023-08-17T10:06:40;13.70;;;10.10;;
53525;SDS011;40551;50.478;19.378;2023-08-17T10:09:13;13.10;;;9.30;;
53525;SDS011;40551;50.478;19.378;2023-08-17T10:11:53;19.70;;;12.50;;
53525;SDS011;40551;50.478;19.378;2023-08-17T10:14:34;21.00;;;11.90;;
53525;SDS011;40551;50.478;19.378;2023-08-17T10:17:10;18.10;;;11.40;;
53525;SDS011;40551;50.478;19.378;2023-08-17T10:19:46;16.70;;;11.90;;
53525;SDS011;40551;50.478;19.378;2023-08-17T10:22:23;20.10;;;11.00;;
53525;SDS011;40551;50.478;19.378;2023-08-17T10:25:01;17.60;;;9.40;;
53525;SDS011;40551;50.478;19.378;2023-08-17T10:27:34;13.20;;;8.00;;
53525;SDS011;40551;50.478;19.378;2023-08-17T10:30:07;17.30;;;8.30;;
53525;SDS011;40551;50.478;19.378;2023-08-17T10:32:40;15.30;;;8.20;;
53525;SDS011;40551;50.478;19.378;2023-08-17T10:35:15;14.20;;;7.90;;
53525;SDS011;40551;50.478;19.378;2023-08-17T10:37:47;10.80;;;6.80;;
53525;SDS011;40551;50.478;19.378;2023-08-17T10:40:25;11.00;;;6.60;;
53525;SDS011;40551;50.478;19.378;2023-08-17T10:42:58;10.70;;;6.50;;
53525;SDS011;40551;50.478;19.378;2023-08-17T10:45:30;11.90;;;6.80;;
53525;SDS011;40551;50.478;19.378;2023-08-17T10:51:05;9.20;;;5.40;;
53525;SDS011;40551;50.478;19.378;2023-08-17T10:53:43;10.30;;;6.30;;
53525;SDS011;40551;50.478;19.378;2023-08-17T10:56:16;11.60;;;5.50;;
53525;SDS011;40551;50.478;19.378;2023-08-17T10:58:48;8.40;;;5.60;;
53525;SDS011;40551;50.478;19.378;2023-08-17T11:01:35;8.40;;;5.40;;
53525;SDS011;40551;50.478;19.378;2023-08-17T11:04:11;7.30;;;4.80;;
53525;SDS011;40551;50.478;19.378;2023-08-17T11:06:45;11.60;;;5.30;;
53525;SDS011;40551;50.478;19.378;2023-08-17T11:09:30;8.20;;;4.60;;
53525;SDS011;40551;50.478;19.378;2023-08-17T11:12:05;10.30;;;5.00;;
53525;SDS011;40551;50.478;19.378;2023-08-17T11:14:58;10.10;;;5.60;;
53525;SDS011;40551;50.478;19.378;2023-08-17T11:17:30;20.80;;;6.10;;
53525;SDS011;40551;50.478;19.378;2023-08-17T11:20:02;8.40;;;5.40;;
53525;SDS011;40551;50.478;19.378;2023-08-17T11:25:13;8.30;;;4.80;;
53525;SDS011;40551;50.478;19.378;2023-08-17T11:27:46;8.80;;;5.10;;
53525;SDS011;40551;50.478;19.378;2023-08-17T11:30:18;10.10;;;5.10;;
53525;SDS011;40551;50.478;19.378;2023-08-17T11:32:52;10.30;;;5.60;;
53525;SDS011;40551;50.478;19.378;2023-08-17T11:35:25;8.90;;;5.20;;
53525;SDS011;40551;50.478;19.378;2023-08-17T11:37:56;10.70;;;4.70;;
53525;SDS011;40551;50.478;19.378;2023-08-17T11:40:28;8.70;;;4.90;;
53525;SDS011;40551;50.478;19.378;2023-08-17T11:43:00;8.30;;;4.90;;
53525;SDS011;40551;50.478;19.378;2023-08-17T11:45:33;9.10;;;5.70;;
53525;SDS011;40551;50.478;19.378;2023-08-17T11:48:06;12.60;;;5.10;;
53525;SDS011;40551;50.478;19.378;2023-08-17T11:50:39;12.10;;;4.70;;
53525;SDS011;40551;50.478;19.378;2023-08-17T11:53:10;12.40;;;5.20;;
53525;SDS011;40551;50.478;19.378;2023-08-17T11:55:42;10.00;;;4.40;;
53525;SDS011;40551;50.478;19.378;2023-08-17T11:58:14;8.50;;;4.30;;
53525;SDS011;40551;50.478;19.378;2023-08-17T12:00:46;13.20;;;5.10;;
53525;SDS011;40551;50.478;19.378;2023-08-17T12:03:19;10.90;;;5.20;;
53525;SDS011;40551;50.478;19.378;2023-08-17T12:05:51;14.00;;;4.70;;
53525;SDS011;40551;50.478;19.378;2023-08-17T12:08:23;11.50;;;5.30;;
53525;SDS011;40551;50.478;19.378;2023-08-17T12:10:55;8.40;;;5.10;;
53525;SDS011;40551;50.478;19.378;2023-08-17T12:13:30;10.90;;;5.50;;
53525;SDS011;40551;50.478;19.378;2023-08-17T12:16:04;9.40;;;5.70;;
53525;SDS011;40551;50.478;19.378;2023-08-17T12:18:36;15.10;;;5.50;;
53525;SDS011;40551;50.478;19.378;2023-08-17T12:21:07;18.80;;;6.00;;
53525;SDS011;40551;50.478;19.378;2023-08-17T12:23:39;20.90;;;6.30;;
53525;SDS011;40551;50.478;19.378;2023-08-17T12:26:18;21.80;;;7.30;;
53525;SDS011;40551;50.478;19.378;2023-08-17T12:28:50;13.70;;;6.80;;
53525;SDS011;40551;50.478;19.378;2023-08-17T12:31:22;11.00;;;6.90;;
53525;SDS011;40551;50.478;19.378;2023-08-17T12:33:54;15.50;;;6.90;;
53525;SDS011;40551;50.478;19.378;2023-08-17T12:36:25;15.20;;;6.90;;
53525;SDS011;40551;50.478;19.378;2023-08-17T12:38:57;16.00;;;7.00;;
53525;SDS011;40551;50.478;19.378;2023-08-17T12:41:32;18.80;;;7.20;;
53525;SDS011;40551;50.478;19.378;2023-08-17T12:44:04;14.00;;;6.60;;
53525;SDS011;40551;50.478;19.378;2023-08-17T12:46:38;17.50;;;7.10;;
53525;SDS011;40551;50.478;19.378;2023-08-17T12:49:10;17.40;;;7.80;;
53525;SDS011;40551;50.478;19.378;2023-08-17T12:51:41;24.70;;;7.60;;
53525;SDS011;40551;50.478;19.378;2023-08-17T12:54:14;19.40;;;8.40;;
53525;SDS011;40551;50.478;19.378;2023-08-17T12:56:46;19.10;;;8.30;;
53525;SDS011;40551;50.478;19.378;2023-08-17T12:59:18;20.80;;;8.40;;
53525;SDS011;40551;50.478;19.378;2023-08-17T13:01:50;19.60;;;8.70;;
53525;SDS011;40551;50.478;19.378;2023-08-17T13:04:21;18.50;;;8.60;;
53525;SDS011;40551;50.478;19.378;2023-08-17T13:06:53;17.30;;;8.60;;
53525;SDS011;40551;50.478;19.378;2023-08-17T13:09:25;24.10;;;8.80;;
53525;SDS011;40551;50.478;19.378;2023-08-17T13:11:57;23.60;;;9.00;;
53525;SDS011;40551;50.478;19.378;2023-08-17T13:14:29;20.90;;;9.00;;
53525;SDS011;40551;50.478;19.378;2023-08-17T13:17:00;22.70;;;7.60;;
53525;SDS011;40551;50.478;19.378;2023-08-17T13:19:32;18.80;;;6.80;;
53525;SDS011;40551;50.478;19.378;2023-08-17T13:22:04;13.20;;;7.20;;
53525;SDS011;40551;50.478;19.378;2023-08-17T13:24:36;12.60;;;6.40;;
53525;SDS011;40551;50.478;19.378;2023-08-17T13:27:09;19.10;;;7.10;;
53525;SDS011;40551;50.478;19.378;2023-08-17T13:29:41;17.00;;;6.70;;
53525;SDS011;40551;50.478;19.378;2023-08-17T13:32:12;14.60;;;6.60;;
53525;SDS011;40551;50.478;19.378;2023-08-17T13:34:44;13.90;;;6.20;;
53525;SDS011;40551;50.478;19.378;2023-08-17T13:37:16;12.70;;;5.80;;
53525;SDS011;40551;50.478;19.378;2023-08-17T13:39:48;15.70;;;6.10;;
53525;SDS011;40551;50.478;19.378;2023-08-17T13:42:20;10.90;;;5.80;;
53525;SDS011;40551;50.478;19.378;2023-08-17T13:44:51;9.10;;;4.10;;
53525;SDS011;40551;50.478;19.378;2023-08-17T13:47:23;8.00;;;4.20;;
53525;SDS011;40551;50.478;19.378;2023-08-17T13:49:55;13.90;;;4.50;;
53525;SDS011;40551;50.478;19.378;2023-08-17T13:52:27;9.70;;;4.60;;
53525;SDS011;40551;50.478;19.378;2023-08-17T13:54:59;11.40;;;4.60;;
53525;SDS011;40551;50.478;19.378;2023-08-17T13:57:31;10.50;;;4.40;;
53525;SDS011;40551;50.478;19.378;2023-08-17T14:00:03;8.60;;;3.40;;
53525;SDS011;40551;50.478;19.378;2023-08-17T14:02:36;8.80;;;3.60;;
53525;SDS011;40551;50.478;19.378;2023-08-17T14:05:08;11.80;;;4.00;;
53525;SDS011;40551;50.478;19.378;2023-08-17T14:07:40;10.00;;;3.90;;
53525;SDS011;40551;50.478;19.378;2023-08-17T14:10:11;7.90;;;4.00;;
53525;SDS011;40551;50.478;19.378;2023-08-17T14:12:57;9.30;;;3.90;;
53525;SDS011;40551;50.478;19.378;2023-08-17T14:15:29;8.80;;;4.20;;
53525;SDS011;40551;50.478;19.378;2023-08-17T14:18:00;9.10;;;4.00;;
53525;SDS011;40551;50.478;19.378;2023-08-17T14:20:33;11.30;;;4.60;;
53525;SDS011;40551;50.478;19.378;2023-08-17T14:23:05;10.90;;;3.80;;
53525;SDS011;40551;50.478;19.378;2023-08-17T14:25:36;9.00;;;4.10;;
53525;SDS011;40551;50.478;19.378;2023-08-17T14:28:08;10.00;;;3.70;;
53525;SDS011;40551;50.478;19.378;2023-08-17T14:30:42;8.30;;;3.80;;
53525;SDS011;40551;50.478;19.378;2023-08-17T14:33:20;6.70;;;3.60;;
53525;SDS011;40551;50.478;19.378;2023-08-17T14:35:52;9.70;;;3.80;;
53525;SDS011;40551;50.478;19.378;2023-08-17T14:38:24;9.40;;;3.90;;
53525;SDS011;40551;50.478;19.378;2023-08-17T14:41:00;9.70;;;3.90;;
53525;SDS011;40551;50.478;19.378;2023-08-17T14:43:33;11.60;;;3.50;;
53525;SDS011;40551;50.478;19.378;2023-08-17T14:46:05;8.40;;;4.20;;
53525;SDS011;40551;50.478;19.378;2023-08-17T14:48:42;11.00;;;4.10;;
53525;SDS011;40551;50.478;19.378;2023-08-17T14:51:14;8.60;;;3.80;;
53525;SDS011;40551;50.478;19.378;2023-08-17T14:53:45;7.40;;;3.50;;
53525;SDS011;40551;50.478;19.378;2023-08-17T14:56:17;8.30;;;3.80;;